createdAt,value
2022-11-09T00:04:10.146Z,1.20
2022-11-09T00:10:23.905Z,0.70
2022-11-09T00:16:37.419Z,0.82
2022-11-09T00:22:50.020Z,1.47
2022-11-09T00:29:05.387Z,1.17
2022-11-09T00:35:25.857Z,1.92
2022-11-09T00:41:41.878Z,1.10
2022-11-09T00:47:52.480Z,2.05
2022-11-09T00:54:08.319Z,1.72
2022-11-09T01:00:27.238Z,3.23
2022-11-09T01:06:41.745Z,2.17
2022-11-09T01:12:56.081Z,1.45
2022-11-09T01:19:09.707Z,1.72
2022-11-09T01:25:24.835Z,1.85
2022-11-09T01:31:37.433Z,2.17
2022-11-09T01:37:50.491Z,2.10
2022-11-09T01:44:15.495Z,2.45
2022-11-09T01:50:33.893Z,3.27
2022-11-09T01:56:49.429Z,2.90
2022-11-09T02:03:03.358Z,2.00
2022-11-09T02:09:18.168Z,2.67
2022-11-09T02:15:35.267Z,1.75
2022-11-09T02:21:53.164Z,2.02
2022-11-09T02:28:09.550Z,1.62
2022-11-09T02:34:26.699Z,1.52
2022-11-09T02:40:40.955Z,1.47
2022-11-09T02:46:59.101Z,1.32
2022-11-09T02:53:15.107Z,1.40
2022-11-09T02:59:28.781Z,1.57
2022-11-09T03:05:47.291Z,1.10
2022-11-09T03:12:01.782Z,1.77
2022-11-09T03:18:13.085Z,0.93
2022-11-09T03:24:29.652Z,1.62
2022-11-09T03:30:43.151Z,1.25
2022-11-09T03:36:56.334Z,0.98
2022-11-09T03:43:12.266Z,1.07
2022-11-09T03:49:28.584Z,0.80
2022-11-09T03:55:44.350Z,0.85
2022-11-09T04:01:59.949Z,0.93
2022-11-09T04:08:15.880Z,1.75
2022-11-09T04:14:31.639Z,0.73
2022-11-09T04:20:47.347Z,1.22
2022-11-09T04:27:02.949Z,1.10
2022-11-09T04:33:18.706Z,0.75
2022-11-09T04:39:34.721Z,1.17
2022-11-09T04:45:48.325Z,1.52
2022-11-09T04:51:59.332Z,1.02
2022-11-09T04:58:14.857Z,1.55
2022-11-09T05:04:30.392Z,0.72
2022-11-09T05:10:45.901Z,1.40
2022-11-09T05:17:02.595Z,1.20
2022-11-09T05:23:34.307Z,1.55
2022-11-09T05:29:50.130Z,0.62
2022-11-09T05:36:07.047Z,1.35
2022-11-09T05:48:29.918Z,0.88
2022-11-09T05:54:45.382Z,0.98
2022-11-09T06:01:00.890Z,0.95
2022-11-09T06:07:12.959Z,0.60
2022-11-09T06:13:28.711Z,0.85
2022-11-09T06:19:40.831Z,1.52
2022-11-09T06:25:53.562Z,0.72
2022-11-09T06:32:03.517Z,1.15
2022-11-09T06:38:20.536Z,1.10
2022-11-09T06:44:37.337Z,1.27
2022-11-09T06:50:53.728Z,1.00
2022-11-09T06:57:10.613Z,1.27
2022-11-09T07:03:25.182Z,0.80
2022-11-09T07:09:37.375Z,0.72
2022-11-09T07:15:51.470Z,0.70
2022-11-09T07:22:07.124Z,0.93
2022-11-09T07:28:20.724Z,1.00
2022-11-09T07:34:36.282Z,1.05
2022-11-09T07:40:49.621Z,0.90
2022-11-09T07:47:04.410Z,0.90
2022-11-09T07:53:18.257Z,0.45
2022-11-09T07:59:29.453Z,0.80
2022-11-09T08:05:45.059Z,0.70
2022-11-09T08:11:59.959Z,0.80
2022-11-09T08:18:15.064Z,1.00
2022-11-09T08:24:30.750Z,0.65
2022-11-09T08:30:44.882Z,1.05
2022-11-09T08:37:00.802Z,0.80
2022-11-09T08:43:19.224Z,0.90
2022-11-09T08:49:35.608Z,0.60
2022-11-09T08:55:49.354Z,1.05
2022-11-09T09:02:02.522Z,1.00
2022-11-09T09:08:15.141Z,1.15
2022-11-09T09:14:30.855Z,0.70
2022-11-09T09:20:42.903Z,0.78
2022-11-09T09:26:54.153Z,1.05
2022-11-09T09:33:09.065Z,0.60
2022-11-09T09:39:25.127Z,0.40
2022-11-09T09:45:41.391Z,0.40
2022-11-09T09:51:54.409Z,1.37
2022-11-09T09:58:12.315Z,0.42
2022-11-09T10:04:27.204Z,0.70
2022-11-09T10:10:51.353Z,0.47
2022-11-09T10:17:09.513Z,0.60
2022-11-09T10:23:39.210Z,0.60
2022-11-09T10:29:54.137Z,0.40
2022-11-09T10:36:12.760Z,0.88
2022-11-09T10:42:27.672Z,0.68
2022-11-09T10:48:40.069Z,0.50
2022-11-09T10:54:58.686Z,0.65
2022-11-09T11:01:18.635Z,0.93
2022-11-09T11:07:32.994Z,0.50
2022-11-09T11:13:46.966Z,0.42
2022-11-09T11:19:58.223Z,0.78
2022-11-09T11:26:29.703Z,0.82
2022-11-09T11:32:47.276Z,0.68
2022-11-09T11:39:04.437Z,0.45
2022-11-09T11:45:40.156Z,0.50
2022-11-09T11:51:47.928Z,0.55
2022-11-09T11:58:12.138Z,0.70
2022-11-09T12:04:49.085Z,0.68
2022-11-09T12:11:02.272Z,0.75
2022-11-09T12:17:18.100Z,0.40
2022-11-09T12:23:48.565Z,0.47
2022-11-09T12:30:05.481Z,0.60
2022-11-09T12:42:31.710Z,0.55
2022-11-09T12:48:48.280Z,0.50
2022-11-09T12:55:00.237Z,0.40
2022-11-09T13:01:18.393Z,0.40
2022-11-09T13:08:01.069Z,0.60
2022-11-09T13:14:53.989Z,0.62
2022-11-09T13:21:25.053Z,1.77
2022-11-09T13:27:45.571Z,2.47
2022-11-09T13:34:03.853Z,1.75
2022-11-09T13:40:51.484Z,0.50
2022-11-09T13:47:07.131Z,0.50
2022-11-09T13:53:37.620Z,0.63
2022-11-09T13:59:55.834Z,0.70
2022-11-09T14:06:13.131Z,0.45
2022-11-09T14:12:41.687Z,0.57
2022-11-09T14:18:55.435Z,0.70
2022-11-09T14:25:15.158Z,0.70
2022-11-09T14:31:35.200Z,0.72
2022-11-09T14:37:52.784Z,0.82
2022-11-09T14:44:07.033Z,0.47
2022-11-09T14:50:26.173Z,0.93
2022-11-09T14:56:43.609Z,0.50
2022-11-09T15:02:59.661Z,0.53
2022-11-09T15:09:19.892Z,0.40
2022-11-09T15:15:35.090Z,0.80
2022-11-09T15:21:50.451Z,0.60
2022-11-09T15:28:37.090Z,0.60
2022-11-09T15:34:49.960Z,0.57
2022-11-09T15:41:06.571Z,0.40
2022-11-09T15:47:33.854Z,0.50
2022-11-09T15:53:47.561Z,0.42
2022-11-09T16:00:08.011Z,0.60
2022-11-09T16:06:22.826Z,0.70
2022-11-09T16:12:34.557Z,0.45
2022-11-09T16:18:54.910Z,0.45
2022-11-09T16:25:07.764Z,0.62
2022-11-09T16:31:51.847Z,0.60
2022-11-09T16:37:35.423Z,0.50
2022-11-09T16:43:47.932Z,0.40
2022-11-09T16:50:03.028Z,0.50
2022-11-09T16:56:17.483Z,0.98
2022-11-09T17:02:30.446Z,1.52
2022-11-09T17:08:44.612Z,1.42
2022-11-09T17:15:01.512Z,1.05
2022-11-09T17:21:17.661Z,0.80
2022-11-09T17:27:34.351Z,0.90
2022-11-09T17:33:50.286Z,0.72
2022-11-09T17:40:06.438Z,0.65
2022-11-09T17:46:24.158Z,0.65
2022-11-09T17:52:41.327Z,0.70
2022-11-09T17:58:56.549Z,0.70
2022-11-09T18:05:14.468Z,0.42
2022-11-09T18:11:27.846Z,0.78
2022-11-09T18:17:39.524Z,0.68
2022-11-09T18:23:48.293Z,0.88
2022-11-09T18:30:05.867Z,0.70
2022-11-09T18:36:25.386Z,0.42
2022-11-09T18:42:39.984Z,0.93
2022-11-09T18:48:51.916Z,0.60
2022-11-09T18:55:04.477Z,0.60
2022-11-09T19:01:23.870Z,0.47
2022-11-09T19:07:39.097Z,0.60
2022-11-09T19:20:16.192Z,0.93
2022-11-09T19:26:29.724Z,0.65
2022-11-09T19:32:43.836Z,0.57
2022-11-09T19:39:03.181Z,1.02
2022-11-09T19:45:21.061Z,0.98
2022-11-09T19:51:38.398Z,0.70
2022-11-09T19:57:55.957Z,0.55
2022-11-09T20:04:10.525Z,0.42
2022-11-09T20:10:25.959Z,0.70
2022-11-09T20:16:45.745Z,0.70
2022-11-09T20:22:57.715Z,0.50
2022-11-09T20:29:14.852Z,0.75
2022-11-09T20:35:30.636Z,0.80
2022-11-09T20:41:44.787Z,0.73
2022-11-09T20:48:10.534Z,0.72
2022-11-09T20:54:17.152Z,1.05
2022-11-09T21:00:35.194Z,1.07
2022-11-09T21:06:52.326Z,0.75
2022-11-09T21:13:03.517Z,0.72
2022-11-09T21:19:19.211Z,0.60
2022-11-09T21:25:50.058Z,0.67
2022-11-09T21:32:05.249Z,0.70
2022-11-09T21:38:20.027Z,0.53
2022-11-09T21:44:39.169Z,1.02
2022-11-09T21:50:56.540Z,0.90
2022-11-09T21:57:10.583Z,0.78
2022-11-09T22:03:24.683Z,0.53
2022-11-09T22:10:08.212Z,0.60
2022-11-09T22:22:34.910Z,0.85
2022-11-09T22:28:51.131Z,0.80
2022-11-09T22:35:02.445Z,0.80
2022-11-09T22:41:18.318Z,0.95
2022-11-09T22:47:32.883Z,1.10
2022-11-09T22:53:47.217Z,0.82
2022-11-09T23:00:01.520Z,0.93
2022-11-09T23:06:17.050Z,1.10
2022-11-09T23:12:29.460Z,1.03
2022-11-09T23:19:02.268Z,1.42
2022-11-09T23:25:36.611Z,1.12
2022-11-09T23:31:50.612Z,1.20
2022-11-09T23:38:07.635Z,1.50
2022-11-09T23:44:21.540Z,1.05
2022-11-09T23:50:37.593Z,1.85
2022-11-09T23:56:48.781Z,1.85
